sensor_id;sensor_type;location;lat;lon;timestamp;temperature;humidity
20432;DHT22;10375;49.136;10.366;2022-12-29T00:00:07;6.40;99.90
20432;DHT22;10375;49.136;10.366;2022-12-29T00:02:35;6.40;99.90
20432;DHT22;10375;49.136;10.366;2022-12-29T00:05:02;6.40;99.90
20432;DHT22;10375;49.136;10.366;2022-12-29T00:07:29;6.40;99.90
20432;DHT22;10375;49.136;10.366;2022-12-29T00:09:56;6.40;99.90
20432;DHT22;10375;49.136;10.366;2022-12-29T00:12:23;6.40;99.90
20432;DHT22;10375;49.136;10.366;2022-12-29T00:14:50;6.30;99.90
20432;DHT22;10375;49.136;10.366;2022-12-29T00:17:36;6.30;99.90
20432;DHT22;10375;49.136;10.366;2022-12-29T00:20:03;6.40;99.90
20432;DHT22;10375;49.136;10.366;2022-12-29T00:22:48;6.40;99.90
20432;DHT22;10375;49.136;10.366;2022-12-29T00:25:36;6.30;99.90
20432;DHT22;10375;49.136;10.366;2022-12-29T00:28:21;6.40;99.90
20432;DHT22;10375;49.136;10.366;2022-12-29T00:31:11;6.40;99.90
20432;DHT22;10375;49.136;10.366;2022-12-29T00:33:58;6.40;99.90
20432;DHT22;10375;49.136;10.366;2022-12-29T00:36:44;6.40;99.90
20432;DHT22;10375;49.136;10.366;2022-12-29T00:39:16;6.40;99.90
20432;DHT22;10375;49.136;10.366;2022-12-29T00:42:08;6.50;99.90
20432;DHT22;10375;49.136;10.366;2022-12-29T00:44:47;6.60;99.90
20432;DHT22;10375;49.136;10.366;2022-12-29T00:47:14;6.60;99.90
20432;DHT22;10375;49.136;10.366;2022-12-29T00:49:41;6.60;99.90
20432;DHT22;10375;49.136;10.366;2022-12-29T00:52:10;6.70;99.90
20432;DHT22;10375;49.136;10.366;2022-12-29T00:54:40;6.70;99.90
20432;DHT22;10375;49.136;10.366;2022-12-29T00:57:09;6.70;99.90
20432;DHT22;10375;49.136;10.366;2022-12-29T00:59:37;6.70;99.90
20432;DHT22;10375;49.136;10.366;2022-12-29T01:02:04;6.70;99.90
20432;DHT22;10375;49.136;10.366;2022-12-29T01:04:32;6.80;99.90
20432;DHT22;10375;49.136;10.366;2022-12-29T01:06:59;6.80;99.90
20432;DHT22;10375;49.136;10.366;2022-12-29T01:09:26;6.90;99.90
20432;DHT22;10375;49.136;10.366;2022-12-29T01:12:11;6.80;99.90
20432;DHT22;10375;49.136;10.366;2022-12-29T01:14:39;6.80;99.90
20432;DHT22;10375;49.136;10.366;2022-12-29T01:17:06;6.90;99.90
20432;DHT22;10375;49.136;10.366;2022-12-29T01:19:33;6.90;99.90
20432;DHT22;10375;49.136;10.366;2022-12-29T01:22:01;6.90;99.90
20432;DHT22;10375;49.136;10.366;2022-12-29T01:24:28;6.90;99.90
20432;DHT22;10375;49.136;10.366;2022-12-29T01:26:55;6.90;99.90
20432;DHT22;10375;49.136;10.366;2022-12-29T01:29:22;6.90;99.90
20432;DHT22;10375;49.136;10.366;2022-12-29T01:31:49;6.90;99.90
20432;DHT22;10375;49.136;10.366;2022-12-29T01:34:17;6.90;99.90
20432;DHT22;10375;49.136;10.366;2022-12-29T01:36:44;6.90;99.90
20432;DHT22;10375;49.136;10.366;2022-12-29T01:39:11;6.90;99.90
20432;DHT22;10375;49.136;10.366;2022-12-29T01:41:40;6.90;99.90
20432;DHT22;10375;49.136;10.366;2022-12-29T01:47:32;6.90;99.90
20432;DHT22;10375;49.136;10.366;2022-12-29T01:50:14;6.90;99.90
20432;DHT22;10375;49.136;10.366;2022-12-29T01:52:55;6.90;99.90
20432;DHT22;10375;49.136;10.366;2022-12-29T01:55:24;6.90;99.90
20432;DHT22;10375;49.136;10.366;2022-12-29T01:57:53;6.90;99.90
20432;DHT22;10375;49.136;10.366;2022-12-29T02:00:20;6.90;99.90
20432;DHT22;10375;49.136;10.366;2022-12-29T02:02:53;7.00;99.90
20432;DHT22;10375;49.136;10.366;2022-12-29T02:08:01;7.10;99.90
20432;DHT22;10375;49.136;10.366;2022-12-29T02:10:31;7.10;99.90
20432;DHT22;10375;49.136;10.366;2022-12-29T02:12:59;7.10;99.90
20432;DHT22;10375;49.136;10.366;2022-12-29T02:18:25;7.10;99.90
20432;DHT22;10375;49.136;10.366;2022-12-29T02:23:46;7.20;99.90
20432;DHT22;10375;49.136;10.366;2022-12-29T02:29:19;7.20;99.90
20432;DHT22;10375;49.136;10.366;2022-12-29T02:35:05;7.20;99.90
20432;DHT22;10375;49.136;10.366;2022-12-29T02:40:10;7.20;99.90
20432;DHT22;10375;49.136;10.366;2022-12-29T02:45:41;7.30;99.90
20432;DHT22;10375;49.136;10.366;2022-12-29T02:48:37;7.20;99.90
20432;DHT22;10375;49.136;10.366;2022-12-29T02:51:15;7.20;99.90
20432;DHT22;10375;49.136;10.366;2022-12-29T02:53:44;7.30;99.90
20432;DHT22;10375;49.136;10.366;2022-12-29T02:56:30;7.30;99.90
20432;DHT22;10375;49.136;10.366;2022-12-29T02:58:57;7.20;99.90
20432;DHT22;10375;49.136;10.366;2022-12-29T03:01:29;7.10;99.90
20432;DHT22;10375;49.136;10.366;2022-12-29T03:04:31;7.10;99.90
20432;DHT22;10375;49.136;10.366;2022-12-29T03:07:26;7.20;99.90
20432;DHT22;10375;49.136;10.366;2022-12-29T03:13:02;7.30;99.90
20432;DHT22;10375;49.136;10.366;2022-12-29T03:19:14;7.40;99.90
20432;DHT22;10375;49.136;10.366;2022-12-29T03:21:47;7.40;99.90
20432;DHT22;10375;49.136;10.366;2022-12-29T03:24:40;7.40;99.90
20432;DHT22;10375;49.136;10.366;2022-12-29T03:27:10;7.40;99.90
20432;DHT22;10375;49.136;10.366;2022-12-29T03:29:45;7.40;99.90
20432;DHT22;10375;49.136;10.366;2022-12-29T03:32:14;7.40;99.90
20432;DHT22;10375;49.136;10.366;2022-12-29T03:34:44;7.40;99.90
20432;DHT22;10375;49.136;10.366;2022-12-29T03:37:14;7.40;99.90
20432;DHT22;10375;49.136;10.366;2022-12-29T03:39:44;7.40;99.90
20432;DHT22;10375;49.136;10.366;2022-12-29T03:42:17;7.40;99.90
20432;DHT22;10375;49.136;10.366;2022-12-29T03:44:46;7.40;99.90
20432;DHT22;10375;49.136;10.366;2022-12-29T03:47:14;7.50;99.90
20432;DHT22;10375;49.136;10.366;2022-12-29T03:49:41;7.50;99.90
20432;DHT22;10375;49.136;10.366;2022-12-29T03:52:08;7.50;99.90
20432;DHT22;10375;49.136;10.366;2022-12-29T03:54:35;7.60;99.90
20432;DHT22;10375;49.136;10.366;2022-12-29T03:57:02;7.60;99.90
20432;DHT22;10375;49.136;10.366;2022-12-29T03:59:29;7.60;99.90
20432;DHT22;10375;49.136;10.366;2022-12-29T04:01:56;7.50;99.90
20432;DHT22;10375;49.136;10.366;2022-12-29T04:04:23;7.50;99.90
20432;DHT22;10375;49.136;10.366;2022-12-29T04:06:50;7.50;99.90
20432;DHT22;10375;49.136;10.366;2022-12-29T04:09:17;7.50;99.90
20432;DHT22;10375;49.136;10.366;2022-12-29T04:11:44;7.50;99.90
20432;DHT22;10375;49.136;10.366;2022-12-29T04:14:11;7.50;99.90
20432;DHT22;10375;49.136;10.366;2022-12-29T04:16:38;7.50;99.90
20432;DHT22;10375;49.136;10.366;2022-12-29T04:19:06;7.50;99.90
20432;DHT22;10375;49.136;10.366;2022-12-29T04:21:34;7.50;99.90
20432;DHT22;10375;49.136;10.366;2022-12-29T04:24:01;7.40;99.90
20432;DHT22;10375;49.136;10.366;2022-12-29T04:26:28;7.30;99.90
20432;DHT22;10375;49.136;10.366;2022-12-29T04:28:55;7.40;99.90
20432;DHT22;10375;49.136;10.366;2022-12-29T04:31:22;7.40;99.90
20432;DHT22;10375;49.136;10.366;2022-12-29T04:33:49;7.30;99.90
20432;DHT22;10375;49.136;10.366;2022-12-29T04:36:16;7.30;99.90
20432;DHT22;10375;49.136;10.366;2022-12-29T04:38:44;7.40;99.90
20432;DHT22;10375;49.136;10.366;2022-12-29T04:41:11;7.30;99.90
20432;DHT22;10375;49.136;10.366;2022-12-29T04:43:38;7.20;99.90
20432;DHT22;10375;49.136;10.366;2022-12-29T04:46:05;7.20;99.90
20432;DHT22;10375;49.136;10.366;2022-12-29T04:48:33;7.10;99.90
20432;DHT22;10375;49.136;10.366;2022-12-29T04:51:00;7.00;99.90
20432;DHT22;10375;49.136;10.366;2022-12-29T04:53:27;7.00;99.90
20432;DHT22;10375;49.136;10.366;2022-12-29T04:55:54;6.90;99.90
20432;DHT22;10375;49.136;10.366;2022-12-29T04:58:21;6.80;99.90
20432;DHT22;10375;49.136;10.366;2022-12-29T05:00:50;6.90;99.90
20432;DHT22;10375;49.136;10.366;2022-12-29T05:03:18;6.80;99.90
20432;DHT22;10375;49.136;10.366;2022-12-29T05:05:46;6.80;99.90
20432;DHT22;10375;49.136;10.366;2022-12-29T05:08:13;6.80;99.90
20432;DHT22;10375;49.136;10.366;2022-12-29T05:10:43;6.80;99.90
20432;DHT22;10375;49.136;10.366;2022-12-29T05:13:10;6.90;99.90
20432;DHT22;10375;49.136;10.366;2022-12-29T05:15:37;6.90;99.90
20432;DHT22;10375;49.136;10.366;2022-12-29T05:18:04;6.90;99.90
20432;DHT22;10375;49.136;10.366;2022-12-29T05:20:31;6.90;99.90
20432;DHT22;10375;49.136;10.366;2022-12-29T05:22:58;6.70;99.90
20432;DHT22;10375;49.136;10.366;2022-12-29T05:25:27;6.60;99.90
20432;DHT22;10375;49.136;10.366;2022-12-29T05:27:54;6.50;99.90
20432;DHT22;10375;49.136;10.366;2022-12-29T05:30:21;6.40;99.90
20432;DHT22;10375;49.136;10.366;2022-12-29T05:32:47;6.40;99.90
20432;DHT22;10375;49.136;10.366;2022-12-29T05:35:14;6.30;99.90
20432;DHT22;10375;49.136;10.366;2022-12-29T05:37:41;6.20;99.90
20432;DHT22;10375;49.136;10.366;2022-12-29T05:40:09;6.20;99.90
20432;DHT22;10375;49.136;10.366;2022-12-29T05:42:36;6.10;99.90
20432;DHT22;10375;49.136;10.366;2022-12-29T05:45:03;6.10;99.90
20432;DHT22;10375;49.136;10.366;2022-12-29T05:47:30;6.10;99.90
20432;DHT22;10375;49.136;10.366;2022-12-29T05:49:58;6.10;99.90
20432;DHT22;10375;49.136;10.366;2022-12-29T05:52:25;6.10;99.90
20432;DHT22;10375;49.136;10.366;2022-12-29T05:54:52;6.20;99.90
20432;DHT22;10375;49.136;10.366;2022-12-29T05:57:19;6.30;99.90
20432;DHT22;10375;49.136;10.366;2022-12-29T05:59:46;6.30;99.90
20432;DHT22;10375;49.136;10.366;2022-12-29T06:02:13;6.40;99.90
20432;DHT22;10375;49.136;10.366;2022-12-29T06:04:40;6.50;99.90
20432;DHT22;10375;49.136;10.366;2022-12-29T06:07:07;6.40;99.90
20432;DHT22;10375;49.136;10.366;2022-12-29T06:09:34;6.50;99.90
20432;DHT22;10375;49.136;10.366;2022-12-29T06:12:01;6.50;99.90
20432;DHT22;10375;49.136;10.366;2022-12-29T06:14:28;6.40;99.90
20432;DHT22;10375;49.136;10.366;2022-12-29T06:16:55;6.30;99.90
20432;DHT22;10375;49.136;10.366;2022-12-29T06:19:22;6.40;99.90
20432;DHT22;10375;49.136;10.366;2022-12-29T06:21:49;6.30;99.90
20432;DHT22;10375;49.136;10.366;2022-12-29T06:24:16;6.40;99.90
20432;DHT22;10375;49.136;10.366;2022-12-29T06:26:43;6.50;99.90
20432;DHT22;10375;49.136;10.366;2022-12-29T06:29:10;6.40;99.90
20432;DHT22;10375;49.136;10.366;2022-12-29T06:31:37;6.50;99.90
20432;DHT22;10375;49.136;10.366;2022-12-29T06:34:05;6.40;99.90
20432;DHT22;10375;49.136;10.366;2022-12-29T06:36:34;6.30;99.90
20432;DHT22;10375;49.136;10.366;2022-12-29T06:39:01;6.10;99.90
20432;DHT22;10375;49.136;10.366;2022-12-29T06:41:28;6.10;99.90
20432;DHT22;10375;49.136;10.366;2022-12-29T06:43:59;6.10;99.90
20432;DHT22;10375;49.136;10.366;2022-12-29T06:46:26;6.10;99.90
20432;DHT22;10375;49.136;10.366;2022-12-29T06:48:53;6.10;99.90
20432;DHT22;10375;49.136;10.366;2022-12-29T06:51:20;6.10;99.90
20432;DHT22;10375;49.136;10.366;2022-12-29T06:53:47;6.10;99.90
20432;DHT22;10375;49.136;10.366;2022-12-29T06:56:14;6.10;99.90
20432;DHT22;10375;49.136;10.366;2022-12-29T06:58:41;6.20;99.90
20432;DHT22;10375;49.136;10.366;2022-12-29T07:01:08;6.20;99.90
20432;DHT22;10375;49.136;10.366;2022-12-29T07:03:35;6.30;99.90
20432;DHT22;10375;49.136;10.366;2022-12-29T07:06:02;6.40;99.90
20432;DHT22;10375;49.136;10.366;2022-12-29T07:08:29;6.50;99.90
20432;DHT22;10375;49.136;10.366;2022-12-29T07:10:57;6.60;99.90
20432;DHT22;10375;49.136;10.366;2022-12-29T07:13:24;6.70;99.90
20432;DHT22;10375;49.136;10.366;2022-12-29T07:15:51;6.70;99.90
20432;DHT22;10375;49.136;10.366;2022-12-29T07:18:18;6.80;99.90
20432;DHT22;10375;49.136;10.366;2022-12-29T07:20:45;6.80;99.90
20432;DHT22;10375;49.136;10.366;2022-12-29T07:23:12;6.70;99.90
20432;DHT22;10375;49.136;10.366;2022-12-29T07:25:39;6.70;99.90
20432;DHT22;10375;49.136;10.366;2022-12-29T07:28:08;6.70;99.90
20432;DHT22;10375;49.136;10.366;2022-12-29T07:30:37;6.70;99.90
20432;DHT22;10375;49.136;10.366;2022-12-29T07:33:04;6.60;99.90
20432;DHT22;10375;49.136;10.366;2022-12-29T07:35:34;6.60;99.90
20432;DHT22;10375;49.136;10.366;2022-12-29T07:38:01;6.60;99.90
20432;DHT22;10375;49.136;10.366;2022-12-29T07:40:28;6.70;99.90
20432;DHT22;10375;49.136;10.366;2022-12-29T07:42:54;6.70;99.90
20432;DHT22;10375;49.136;10.366;2022-12-29T07:45:21;6.80;99.90
20432;DHT22;10375;49.136;10.366;2022-12-29T07:47:49;6.80;99.90
20432;DHT22;10375;49.136;10.366;2022-12-29T07:50:16;6.90;99.90
20432;DHT22;10375;49.136;10.366;2022-12-29T07:52:43;6.90;99.90
20432;DHT22;10375;49.136;10.366;2022-12-29T07:55:11;6.90;99.90
20432;DHT22;10375;49.136;10.366;2022-12-29T07:57:38;7.00;99.90
20432;DHT22;10375;49.136;10.366;2022-12-29T08:00:05;7.00;99.90
20432;DHT22;10375;49.136;10.366;2022-12-29T08:02:33;7.00;99.90
20432;DHT22;10375;49.136;10.366;2022-12-29T08:05:00;7.00;99.90
20432;DHT22;10375;49.136;10.366;2022-12-29T08:07:27;7.00;99.90
20432;DHT22;10375;49.136;10.366;2022-12-29T08:09:54;7.10;99.90
20432;DHT22;10375;49.136;10.366;2022-12-29T08:12:21;7.10;99.90
20432;DHT22;10375;49.136;10.366;2022-12-29T08:14:48;7.10;99.90
20432;DHT22;10375;49.136;10.366;2022-12-29T08:17:16;7.10;99.90
20432;DHT22;10375;49.136;10.366;2022-12-29T08:19:42;7.10;99.90
20432;DHT22;10375;49.136;10.366;2022-12-29T08:22:09;7.10;99.90
20432;DHT22;10375;49.136;10.366;2022-12-29T08:24:36;7.10;99.90
20432;DHT22;10375;49.136;10.366;2022-12-29T08:27:03;7.10;99.90
20432;DHT22;10375;49.136;10.366;2022-12-29T08:29:45;7.20;99.90
20432;DHT22;10375;49.136;10.366;2022-12-29T08:32:12;7.20;99.90
20432;DHT22;10375;49.136;10.366;2022-12-29T08:34:39;7.30;99.90
20432;DHT22;10375;49.136;10.366;2022-12-29T08:37:06;7.40;99.90
20432;DHT22;10375;49.136;10.366;2022-12-29T08:39:33;7.50;99.90
20432;DHT22;10375;49.136;10.366;2022-12-29T08:42:01;7.60;99.90
20432;DHT22;10375;49.136;10.366;2022-12-29T08:44:28;7.60;99.90
20432;DHT22;10375;49.136;10.366;2022-12-29T08:46:55;7.70;99.90
20432;DHT22;10375;49.136;10.366;2022-12-29T08:49:22;7.90;99.90
20432;DHT22;10375;49.136;10.366;2022-12-29T08:51:49;8.00;99.90
20432;DHT22;10375;49.136;10.366;2022-12-29T08:54:16;8.10;99.90
20432;DHT22;10375;49.136;10.366;2022-12-29T08:56:43;8.10;99.90
20432;DHT22;10375;49.136;10.366;2022-12-29T08:59:10;8.10;99.90
20432;DHT22;10375;49.136;10.366;2022-12-29T09:01:38;8.10;99.90
20432;DHT22;10375;49.136;10.366;2022-12-29T09:04:07;8.20;99.90
20432;DHT22;10375;49.136;10.366;2022-12-29T09:06:44;8.30;99.90
20432;DHT22;10375;49.136;10.366;2022-12-29T09:09:12;8.50;99.90
20432;DHT22;10375;49.136;10.366;2022-12-29T09:11:39;8.60;99.90
20432;DHT22;10375;49.136;10.366;2022-12-29T09:14:06;8.70;99.90
20432;DHT22;10375;49.136;10.366;2022-12-29T09:16:34;8.70;99.90
20432;DHT22;10375;49.136;10.366;2022-12-29T09:19:02;8.60;99.90
20432;DHT22;10375;49.136;10.366;2022-12-29T09:21:29;8.60;99.90
20432;DHT22;10375;49.136;10.366;2022-12-29T09:23:56;8.50;99.90
20432;DHT22;10375;49.136;10.366;2022-12-29T09:26:23;8.60;99.90
20432;DHT22;10375;49.136;10.366;2022-12-29T09:28:50;8.70;99.90
20432;DHT22;10375;49.136;10.366;2022-12-29T09:31:17;8.70;99.90
20432;DHT22;10375;49.136;10.366;2022-12-29T09:33:44;8.80;99.90
20432;DHT22;10375;49.136;10.366;2022-12-29T09:36:11;8.80;99.90
20432;DHT22;10375;49.136;10.366;2022-12-29T09:38:38;8.90;99.90
20432;DHT22;10375;49.136;10.366;2022-12-29T09:43:44;9.30;99.90
20432;DHT22;10375;49.136;10.366;2022-12-29T09:48:43;9.30;99.90
20432;DHT22;10375;49.136;10.366;2022-12-29T09:51:15;9.30;99.90
20432;DHT22;10375;49.136;10.366;2022-12-29T09:53:45;9.30;99.90
20432;DHT22;10375;49.136;10.366;2022-12-29T09:56:19;9.30;99.90
20432;DHT22;10375;49.136;10.366;2022-12-29T09:58:52;9.20;99.90
20432;DHT22;10375;49.136;10.366;2022-12-29T10:01:36;9.30;99.90
20432;DHT22;10375;49.136;10.366;2022-12-29T10:04:08;9.30;99.90
20432;DHT22;10375;49.136;10.366;2022-12-29T10:13:13;9.20;99.90
20432;DHT22;10375;49.136;10.366;2022-12-29T10:16:02;9.20;99.90
20432;DHT22;10375;49.136;10.366;2022-12-29T10:24:12;9.10;99.90
20432;DHT22;10375;49.136;10.366;2022-12-29T10:26:41;9.20;99.90
20432;DHT22;10375;49.136;10.366;2022-12-29T10:29:30;9.20;99.90
20432;DHT22;10375;49.136;10.366;2022-12-29T10:32:02;9.20;99.90
20432;DHT22;10375;49.136;10.366;2022-12-29T10:34:36;9.20;99.90
20432;DHT22;10375;49.136;10.366;2022-12-29T10:40:01;9.30;99.90
20432;DHT22;10375;49.136;10.366;2022-12-29T10:42:36;9.40;99.90
20432;DHT22;10375;49.136;10.366;2022-12-29T10:45:05;9.50;99.90
20432;DHT22;10375;49.136;10.366;2022-12-29T10:47:41;9.50;99.90
20432;DHT22;10375;49.136;10.366;2022-12-29T10:50:12;9.60;99.90
20432;DHT22;10375;49.136;10.366;2022-12-29T10:52:39;9.70;99.90
20432;DHT22;10375;49.136;10.366;2022-12-29T10:55:17;9.80;99.90
20432;DHT22;10375;49.136;10.366;2022-12-29T10:57:46;9.90;99.90
20432;DHT22;10375;49.136;10.366;2022-12-29T11:00:20;10.00;99.90
20432;DHT22;10375;49.136;10.366;2022-12-29T11:08:33;10.00;99.90
20432;DHT22;10375;49.136;10.366;2022-12-29T11:11:07;9.80;99.90
20432;DHT22;10375;49.136;10.366;2022-12-29T11:13:47;9.80;99.90
20432;DHT22;10375;49.136;10.366;2022-12-29T11:16:31;9.80;99.90
20432;DHT22;10375;49.136;10.366;2022-12-29T11:18:58;9.80;99.90
20432;DHT22;10375;49.136;10.366;2022-12-29T11:21:39;9.90;99.90
20432;DHT22;10375;49.136;10.366;2022-12-29T11:24:24;9.90;99.90
20432;DHT22;10375;49.136;10.366;2022-12-29T11:26:53;10.00;99.90
20432;DHT22;10375;49.136;10.366;2022-12-29T11:29:26;10.10;99.90
20432;DHT22;10375;49.136;10.366;2022-12-29T11:31:55;10.20;99.90
20432;DHT22;10375;49.136;10.366;2022-12-29T11:34:32;10.20;99.90
20432;DHT22;10375;49.136;10.366;2022-12-29T11:39:50;10.30;99.90
20432;DHT22;10375;49.136;10.366;2022-12-29T11:45:06;10.40;99.90
20432;DHT22;10375;49.136;10.366;2022-12-29T11:47:36;10.40;99.90
20432;DHT22;10375;49.136;10.366;2022-12-29T11:50:06;10.30;99.90
20432;DHT22;10375;49.136;10.366;2022-12-29T11:52:36;10.30;99.90
20432;DHT22;10375;49.136;10.366;2022-12-29T11:55:17;10.30;99.90
20432;DHT22;10375;49.136;10.366;2022-12-29T11:57:45;10.20;99.90
20432;DHT22;10375;49.136;10.366;2022-12-29T12:00:18;10.20;99.90
20432;DHT22;10375;49.136;10.366;2022-12-29T12:03:07;10.20;99.90
20432;DHT22;10375;49.136;10.366;2022-12-29T12:05:51;10.10;99.90
20432;DHT22;10375;49.136;10.366;2022-12-29T12:08:39;10.10;99.90
20432;DHT22;10375;49.136;10.366;2022-12-29T12:11:18;10.20;99.90
20432;DHT22;10375;49.136;10.366;2022-12-29T12:14:04;10.20;99.90
20432;DHT22;10375;49.136;10.366;2022-12-29T12:16:37;10.30;99.90
20432;DHT22;10375;49.136;10.366;2022-12-29T12:24:49;10.30;99.90
20432;DHT22;10375;49.136;10.366;2022-12-29T12:27:23;10.30;99.90
20432;DHT22;10375;49.136;10.366;2022-12-29T12:35:26;10.20;99.90
20432;DHT22;10375;49.136;10.366;2022-12-29T12:38:18;10.20;99.90
20432;DHT22;10375;49.136;10.366;2022-12-29T13:19:20;10.60;99.90
20432;DHT22;10375;49.136;10.366;2022-12-29T13:28:35;10.50;99.90
20432;DHT22;10375;49.136;10.366;2022-12-29T13:31:18;10.60;99.90
20432;DHT22;10375;49.136;10.366;2022-12-29T13:36:53;10.50;99.90
20432;DHT22;10375;49.136;10.366;2022-12-29T13:39:35;10.40;99.90
20432;DHT22;10375;49.136;10.366;2022-12-29T13:42:04;10.40;99.90
20432;DHT22;10375;49.136;10.366;2022-12-29T13:44:35;10.30;99.90
20432;DHT22;10375;49.136;10.366;2022-12-29T13:50:05;10.30;99.90
20432;DHT22;10375;49.136;10.366;2022-12-29T13:55:32;10.30;99.90
20432;DHT22;10375;49.136;10.366;2022-12-29T13:58:46;10.30;99.90
20432;DHT22;10375;49.136;10.366;2022-12-29T14:03:58;10.20;99.90
20432;DHT22;10375;49.136;10.366;2022-12-29T14:06:38;10.20;99.90
20432;DHT22;10375;49.136;10.366;2022-12-29T14:12:43;10.10;99.90
20432;DHT22;10375;49.136;10.366;2022-12-29T14:17:39;10.00;99.90
20432;DHT22;10375;49.136;10.366;2022-12-29T14:20:39;10.00;99.90
20432;DHT22;10375;49.136;10.366;2022-12-29T14:31:56;9.70;99.90
20432;DHT22;10375;49.136;10.366;2022-12-29T14:34:30;9.70;99.90
20432;DHT22;10375;49.136;10.366;2022-12-29T14:37:34;9.70;99.90
20432;DHT22;10375;49.136;10.366;2022-12-29T14:42:29;9.60;99.90
20432;DHT22;10375;49.136;10.366;2022-12-29T14:51:43;9.60;99.90
20432;DHT22;10375;49.136;10.366;2022-12-29T14:57:19;9.70;99.90
20432;DHT22;10375;49.136;10.366;2022-12-29T14:59:48;9.80;99.90
20432;DHT22;10375;49.136;10.366;2022-12-29T15:02:22;9.90;99.90
20432;DHT22;10375;49.136;10.366;2022-12-29T15:08:11;10.00;99.90
20432;DHT22;10375;49.136;10.366;2022-12-29T15:19:58;9.80;99.90
20432;DHT22;10375;49.136;10.366;2022-12-29T15:22:25;9.80;99.90
20432;DHT22;10375;49.136;10.366;2022-12-29T15:24:54;9.70;99.90
20432;DHT22;10375;49.136;10.366;2022-12-29T15:27:25;9.70;99.90
20432;DHT22;10375;49.136;10.366;2022-12-29T15:29:59;9.60;99.90
20432;DHT22;10375;49.136;10.366;2022-12-29T15:32:38;9.60;99.90
20432;DHT22;10375;49.136;10.366;2022-12-29T15:35:37;9.60;99.90
20432;DHT22;10375;49.136;10.366;2022-12-29T15:38:20;9.50;99.90
20432;DHT22;10375;49.136;10.366;2022-12-29T15:41:32;9.40;99.90
20432;DHT22;10375;49.136;10.366;2022-12-29T15:47:36;9.40;99.90
20432;DHT22;10375;49.136;10.366;2022-12-29T15:50:06;9.30;99.90
20432;DHT22;10375;49.136;10.366;2022-12-29T15:56:16;9.30;99.90
20432;DHT22;10375;49.136;10.366;2022-12-29T16:01:58;9.30;99.90
20432;DHT22;10375;49.136;10.366;2022-12-29T16:04:29;9.20;99.90
20432;DHT22;10375;49.136;10.366;2022-12-29T16:06:59;9.10;99.90
20432;DHT22;10375;49.136;10.366;2022-12-29T16:09:42;9.10;99.90
20432;DHT22;10375;49.136;10.366;2022-12-29T16:12:21;9.10;99.90
20432;DHT22;10375;49.136;10.366;2022-12-29T16:14:58;9.20;99.90
20432;DHT22;10375;49.136;10.366;2022-12-29T16:20:41;9.20;99.90
20432;DHT22;10375;49.136;10.366;2022-12-29T16:23:19;9.20;99.90
20432;DHT22;10375;49.136;10.366;2022-12-29T16:25:48;9.20;99.90
20432;DHT22;10375;49.136;10.366;2022-12-29T16:28:21;9.20;99.90
20432;DHT22;10375;49.136;10.366;2022-12-29T16:31:06;9.20;99.90
20432;DHT22;10375;49.136;10.366;2022-12-29T16:33:53;9.20;99.90
20432;DHT22;10375;49.136;10.366;2022-12-29T16:39:35;9.30;99.90
20432;DHT22;10375;49.136;10.366;2022-12-29T16:50:36;9.40;99.90
20432;DHT22;10375;49.136;10.366;2022-12-29T16:53:05;9.50;99.90
20432;DHT22;10375;49.136;10.366;2022-12-29T16:55:34;9.50;99.90
20432;DHT22;10375;49.136;10.366;2022-12-29T16:58:01;9.60;99.90
20432;DHT22;10375;49.136;10.366;2022-12-29T17:00:36;9.40;99.90
20432;DHT22;10375;49.136;10.366;2022-12-29T17:03:03;9.30;99.90
20432;DHT22;10375;49.136;10.366;2022-12-29T17:05:30;9.00;99.90
20432;DHT22;10375;49.136;10.366;2022-12-29T17:07:57;8.90;99.90
20432;DHT22;10375;49.136;10.366;2022-12-29T17:10:28;8.80;99.90
20432;DHT22;10375;49.136;10.366;2022-12-29T17:13:15;8.70;99.90
20432;DHT22;10375;49.136;10.366;2022-12-29T17:15:42;8.60;99.90
20432;DHT22;10375;49.136;10.366;2022-12-29T17:18:10;8.50;99.90
20432;DHT22;10375;49.136;10.366;2022-12-29T17:20:40;8.40;99.90
20432;DHT22;10375;49.136;10.366;2022-12-29T17:23:15;8.40;99.90
20432;DHT22;10375;49.136;10.366;2022-12-29T17:25:52;8.30;99.90
20432;DHT22;10375;49.136;10.366;2022-12-29T17:28:23;8.20;99.90
20432;DHT22;10375;49.136;10.366;2022-12-29T17:31:00;8.20;99.90
20432;DHT22;10375;49.136;10.366;2022-12-29T17:33:31;8.10;99.90
20432;DHT22;10375;49.136;10.366;2022-12-29T17:36:01;8.10;99.90
20432;DHT22;10375;49.136;10.366;2022-12-29T17:38:30;8.10;99.90
20432;DHT22;10375;49.136;10.366;2022-12-29T17:40:59;8.10;99.90
20432;DHT22;10375;49.136;10.366;2022-12-29T17:43:26;8.10;99.90
20432;DHT22;10375;49.136;10.366;2022-12-29T17:46:02;8.00;99.90
20432;DHT22;10375;49.136;10.366;2022-12-29T17:48:31;8.00;99.90
20432;DHT22;10375;49.136;10.366;2022-12-29T17:50:58;8.00;99.90
20432;DHT22;10375;49.136;10.366;2022-12-29T17:53:28;8.00;99.90
20432;DHT22;10375;49.136;10.366;2022-12-29T17:55:55;8.00;99.90
20432;DHT22;10375;49.136;10.366;2022-12-29T17:58:28;7.90;99.90
20432;DHT22;10375;49.136;10.366;2022-12-29T18:00:59;8.00;99.90
20432;DHT22;10375;49.136;10.366;2022-12-29T18:03:29;8.00;99.90
20432;DHT22;10375;49.136;10.366;2022-12-29T18:05:57;8.00;99.90
20432;DHT22;10375;49.136;10.366;2022-12-29T18:08:24;8.00;99.90
20432;DHT22;10375;49.136;10.366;2022-12-29T18:10:53;8.00;99.90
20432;DHT22;10375;49.136;10.366;2022-12-29T18:13:26;8.00;99.90
20432;DHT22;10375;49.136;10.366;2022-12-29T18:16:05;8.00;99.90
20432;DHT22;10375;49.136;10.366;2022-12-29T18:18:32;7.90;99.90
20432;DHT22;10375;49.136;10.366;2022-12-29T18:20:59;7.90;99.90
20432;DHT22;10375;49.136;10.366;2022-12-29T18:23:30;7.90;99.90
20432;DHT22;10375;49.136;10.366;2022-12-29T18:26:01;7.90;99.90
20432;DHT22;10375;49.136;10.366;2022-12-29T18:28:29;7.90;99.90
20432;DHT22;10375;49.136;10.366;2022-12-29T18:30:59;8.00;99.90
20432;DHT22;10375;49.136;10.366;2022-12-29T18:33:27;7.90;99.90
20432;DHT22;10375;49.136;10.366;2022-12-29T18:35:59;7.90;99.90
20432;DHT22;10375;49.136;10.366;2022-12-29T18:38:26;7.90;99.90
20432;DHT22;10375;49.136;10.366;2022-12-29T18:40:54;7.90;99.90
20432;DHT22;10375;49.136;10.366;2022-12-29T18:43:22;7.80;99.90
20432;DHT22;10375;49.136;10.366;2022-12-29T18:45:49;7.80;99.90
20432;DHT22;10375;49.136;10.366;2022-12-29T18:48:18;7.80;99.90
20432;DHT22;10375;49.136;10.366;2022-12-29T18:50:46;7.80;99.90
20432;DHT22;10375;49.136;10.366;2022-12-29T18:53:16;7.80;99.90
20432;DHT22;10375;49.136;10.366;2022-12-29T18:55:44;7.80;99.90
20432;DHT22;10375;49.136;10.366;2022-12-29T18:58:11;7.80;99.90
20432;DHT22;10375;49.136;10.366;2022-12-29T19:00:38;7.80;99.90
20432;DHT22;10375;49.136;10.366;2022-12-29T19:03:06;7.90;99.90
20432;DHT22;10375;49.136;10.366;2022-12-29T19:05:38;7.90;99.90
20432;DHT22;10375;49.136;10.366;2022-12-29T19:08:05;7.80;99.90